Jacks Fork River (Missouri), Mountain View (07065200)

StateMissouriCurrentGood (111 cfs)
RiverJacks Fork RiverFlood - The river is flooding. Obstacles can be treacherous or deadly. The river should be avoided at this stage for casual trips and definitely for the inexperienced. Trips should be attempted only with protective gear and equipment.Flood(none)
Updated2019-10-14 2:45 (28 minutes ago)High - The river is high and potentially dangerous, especially for the young and / or inexperienced. Normal stream obstacles are sometimes difficult to navigate. Extended distances can be attempted, but canoe travel may not be advisable.High(none)
Discharge111 cfs (median: 39 cfs)Good - Conditions are ideal for a canoe or kayak. Boats typically will drag on fewer than one-quarter of riffles, if at all, and portages are unnecessary or rare. Normal float lengths can be attempted without a problem.Good100
Height1.79 feetLow - River is low but can still be floated. Some riffles are okay but most come with significant dragging and might need a portage. Float lengths should be reduced to accommodate low flow, dragging, and portages.Low30
TrendFalling (falling over 24 hours)Poor - River is too low to float comfortably. Most or all riffles will drag or must be portaged and some obstacles (such as slick shelf rock) cause undue problems. Avoid the river at this stage for casual paddling trips.Poor(none)
USGSExternal icon USGS Site for Mountain View (07065200)LocationExternal icon Google Maps

Trending Data

Plot Image
ObservationHeightDischargeMaximum
Discharge
Minimum
Discharge
Mean
Discharge
P05P10P20P25P50
(Median)
P75P80P90P95
2019-10-14 02:45 1.79 111 522 (2015) 21 (2018) 75 24 25 26 39 61 67 257
2019-10-14 01:45 1.80 113 522 (2015) 21 (2018) 75 24 25 26 39 61 67 257
2019-10-14 00:45 1.81 114 522 (2015) 21 (2018) 75 24 25 26 39 61 67 257
2019-10-13 23:45 1.82 116 369 (2015) 22 (2018) 66 24 26 27 33 62 73 211
2019-10-13 22:45 1.83 118 369 (2015) 22 (2018) 66 24 26 27 33 62 73 211
2019-10-13 21:45 1.84 119 369 (2015) 22 (2018) 66 24 26 27 33 62 73 211
2019-10-13 20:45 1.85 121 369 (2015) 22 (2018) 66 24 26 27 33 62 73 211
2019-10-13 19:45 1.86 122 369 (2015) 22 (2018) 66 24 26 27 33 62 73 211
2019-10-13 18:45 1.87 124 369 (2015) 22 (2018) 66 24 26 27 33 62 73 211
2019-10-13 17:45 1.88 126 369 (2015) 22 (2018) 66 24 26 27 33 62 73 211
2019-10-13 16:45 1.89 127 369 (2015) 22 (2018) 66 24 26 27 33 62 73 211
2019-10-13 15:45 1.91 131 369 (2015) 22 (2018) 66 24 26 27 33 62 73 211
2019-10-13 14:45 1.92 132 369 (2015) 22 (2018) 66 24 26 27 33 62 73 211
2019-10-13 13:45 1.93 134 369 (2015) 22 (2018) 66 24 26 27 33 62 73 211
2019-10-13 12:45 1.95 138 369 (2015) 22 (2018) 66 24 26 27 33 62 73 211
2019-10-13 11:45 1.96 139 369 (2015) 22 (2018) 66 24 26 27 33 62 73 211
2019-10-13 10:45 1.97 141 369 (2015) 22 (2018) 66 24 26 27 33 62 73 211
2019-10-13 09:45 1.98 143 369 (2015) 22 (2018) 66 24 26 27 33 62 73 211
2019-10-13 08:45 1.99 145 369 (2015) 22 (2018) 66 24 26 27 33 62 73 211
2019-10-13 07:45 2.01 148 369 (2015) 22 (2018) 66 24 26 27 33 62 73 211
2019-10-13 06:45 2.03 152 369 (2015) 22 (2018) 66 24 26 27 33 62 73 211
2019-10-13 05:45 2.04 154 369 (2015) 22 (2018) 66 24 26 27 33 62 73 211
2019-10-13 04:45 2.06 158 369 (2015) 22 (2018) 66 24 26 27 33 62 73 211
2019-10-13 03:45 2.07 159 369 (2015) 22 (2018) 66 24 26 27 33 62 73 211
2019-10-13 02:45 2.09 163 369 (2015) 22 (2018) 66 24 26 27 33 62 73 211
2019-10-13 01:45 2.11 167 369 (2015) 22 (2018) 66 24 26 27 33 62 73 211
2019-10-13 00:45 2.13 171 369 (2015) 22 (2018) 66 24 26 27 33 62 73 211
2019-10-12 23:45 2.14 173 263 (2015) 25 (2008) 65 26 27 28 34 60 90 234
2019-10-12 22:45 2.17 179 263 (2015) 25 (2008) 65 26 27 28 34 60 90 234
2019-10-12 21:45 2.19 183 263 (2015) 25 (2008) 65 26 27 28 34 60 90 234
2019-10-12 20:45 2.21 187 263 (2015) 25 (2008) 65 26 27 28 34 60 90 234
2019-10-12 19:45 2.23 192 263 (2015) 25 (2008) 65 26 27 28 34 60 90 234
2019-10-12 18:45 2.26 198 263 (2015) 25 (2008) 65 26 27 28 34 60 90 234
2019-10-12 17:45 2.28 202 263 (2015) 25 (2008) 65 26 27 28 34 60 90 234
2019-10-12 16:45 2.31 209 263 (2015) 25 (2008) 65 26 27 28 34 60 90 234
2019-10-12 15:45 2.33 213 263 (2015) 25 (2008) 65 26 27 28 34 60 90 234
2019-10-12 14:45 2.36 220 263 (2015) 25 (2008) 65 26 27 28 34 60 90 234
2019-10-12 13:45 2.39 227 263 (2015) 25 (2008) 65 26 27 28 34 60 90 234
2019-10-12 12:45 2.42 234 263 (2015) 25 (2008) 65 26 27 28 34 60 90 234
2019-10-12 11:45 2.45 241 263 (2015) 25 (2008) 65 26 27 28 34 60 90 234
2019-10-12 10:45 2.48 248 263 (2015) 25 (2008) 65 26 27 28 34 60 90 234
2019-10-12 09:45 2.52 258 263 (2015) 25 (2008) 65 26 27 28 34 60 90 234
2019-10-12 08:45 2.56 268 263 (2015) 25 (2008) 65 26 27 28 34 60 90 234
2019-10-12 07:45 2.61 281 263 (2015) 25 (2008) 65 26 27 28 34 60 90 234
2019-10-12 06:45 2.65 292 263 (2015) 25 (2008) 65 26 27 28 34 60 90 234
2019-10-12 05:45 2.71 308 263 (2015) 25 (2008) 65 26 27 28 34 60 90 234
2019-10-12 04:45 2.76 322 263 (2015) 25 (2008) 65 26 27 28 34 60 90 234
2019-10-12 03:45 2.82 340 263 (2015) 25 (2008) 65 26 27 28 34 60 90 234
2019-10-12 02:45 2.88 357 263 (2015) 25 (2008) 65 26 27 28 34 60 90 234
2019-10-12 01:45 2.95 379 263 (2015) 25 (2008) 65 26 27 28 34 60 90 234
2019-10-12 00:45 3.03 404 263 (2015) 25 (2008) 65 26 27 28 34 60 90 234
2019-10-11 23:45 3.11 430 601 (2015) 26 (2008) 90 26 28 29 34 49 72 405
2019-10-11 22:45 3.21 465 601 (2015) 26 (2008) 90 26 28 29 34 49 72 405
2019-10-11 21:45 3.32 504 601 (2015) 26 (2008) 90 26 28 29 34 49 72 405
2019-10-11 20:45 3.43 545 601 (2015) 26 (2008) 90 26 28 29 34 49 72 405
2019-10-11 19:45 3.57 600 601 (2015) 26 (2008) 90 26 28 29 34 49 72 405
2019-10-11 18:45 3.73 667 601 (2015) 26 (2008) 90 26 28 29 34 49 72 405
2019-10-11 17:45 3.93 756 601 (2015) 26 (2008) 90 26 28 29 34 49 72 405
2019-10-11 16:45 4.13 851 601 (2015) 26 (2008) 90 26 28 29 34 49 72 405
2019-10-11 15:45 4.38 980 601 (2015) 26 (2008) 90 26 28 29 34 49 72 405
2019-10-11 14:45 4.64 1120 601 (2015) 26 (2008) 90 26 28 29 34 49 72 405
2019-10-11 13:45 4.90 1280 601 (2015) 26 (2008) 90 26 28 29 34 49 72 405
2019-10-11 12:45 5.03 1360 601 (2015) 26 (2008) 90 26 28 29 34 49 72 405
2019-10-11 11:45 5.05 1370 601 (2015) 26 (2008) 90 26 28 29 34 49 72 405
2019-10-11 10:45 4.71 1160 601 (2015) 26 (2008) 90 26 28 29 34 49 72 405
2019-10-11 09:45 3.77 684 601 (2015) 26 (2008) 90 26 28 29 34 49 72 405
2019-10-11 08:45 1.79 111 601 (2015) 26 (2008) 90 26 28 29 34 49 72 405
2019-10-11 07:45 1.67 94 601 (2015) 26 (2008) 90 26 28 29 34 49 72 405
2019-10-11 06:45 1.61 85 601 (2015) 26 (2008) 90 26 28 29 34 49 72 405
2019-10-11 05:45 1.54 76 601 (2015) 26 (2008) 90 26 28 29 34 49 72 405
2019-10-11 04:45 1.48 69 601 (2015) 26 (2008) 90 26 28 29 34 49 72 405
2019-10-11 03:45 1.43 63 601 (2015) 26 (2008) 90 26 28 29 34 49 72 405
2019-10-11 02:45 1.33 53 601 (2015) 26 (2008) 90 26 28 29 34 49 72 405
2019-10-11 01:45 1.27 47 601 (2015) 26 (2008) 90 26 28 29 34 49 72 405
2019-10-11 00:45 1.22 42 601 (2015) 26 (2008) 90 26 28 29 34 49 72 405
2019-10-10 23:45 1.22 42 1040 (2015) 20 (2002) 146 23 28 29 35 47 67 898
2019-10-10 22:45 1.22 42 1040 (2015) 20 (2002) 146 23 28 29 35 47 67 898
2019-10-10 21:45 1.21 41 1040 (2015) 20 (2002) 146 23 28 29 35 47 67 898
2019-10-10 20:45 1.20 40 1040 (2015) 20 (2002) 146 23 28 29 35 47 67 898
2019-10-10 19:45 1.20 40 1040 (2015) 20 (2002) 146 23 28 29 35 47 67 898
2019-10-10 18:45 1.20 40 1040 (2015) 20 (2002) 146 23 28 29 35 47 67 898
2019-10-10 17:45 1.19 40 1040 (2015) 20 (2002) 146 23 28 29 35 47 67 898
2019-10-10 16:45 1.19 40 1040 (2015) 20 (2002) 146 23 28 29 35 47 67 898
2019-10-10 15:45 1.19 40 1040 (2015) 20 (2002) 146 23 28 29 35 47 67 898
2019-10-10 14:45 1.19 40 1040 (2015) 20 (2002) 146 23 28 29 35 47 67 898
2019-10-10 13:45 1.19 40 1040 (2015) 20 (2002) 146 23 28 29 35 47 67 898
2019-10-10 12:45 1.19 40 1040 (2015) 20 (2002) 146 23 28 29 35 47 67 898
2019-10-10 11:45 1.19 40 1040 (2015) 20 (2002) 146 23 28 29 35 47 67 898
2019-10-10 10:45 1.19 40 1040 (2015) 20 (2002) 146 23 28 29 35 47 67 898
2019-10-10 09:45 1.19 40 1040 (2015) 20 (2002) 146 23 28 29 35 47 67 898
2019-10-10 08:45 1.19 40 1040 (2015) 20 (2002) 146 23 28 29 35 47 67 898
2019-10-10 07:45 1.19 40 1040 (2015) 20 (2002) 146 23 28 29 35 47 67 898
2019-10-10 06:45 1.19 40 1040 (2015) 20 (2002) 146 23 28 29 35 47 67 898
2019-10-10 05:45 1.19 40 1040 (2015) 20 (2002) 146 23 28 29 35 47 67 898
2019-10-10 04:45 1.19 40 1040 (2015) 20 (2002) 146 23 28 29 35 47 67 898
2019-10-10 03:45 1.20 40 1040 (2015) 20 (2002) 146 23 28 29 35 47 67 898
2019-10-10 02:45 1.20 40 1040 (2015) 20 (2002) 146 23 28 29 35 47 67 898
2019-10-10 01:45 1.20 40 1040 (2015) 20 (2002) 146 23 28 29 35 47 67 898
2019-10-10 00:45 1.20 40 1040 (2015) 20 (2002) 146 23 28 29 35 47 67 898
2019-10-09 23:45 1.20 40 2590 (2010) 17 (2002) 187 22 28 29 34 46 51 572
2019-10-09 22:45 1.20 40 2590 (2010) 17 (2002) 187 22 28 29 34 46 51 572
2019-10-09 21:45 1.20 40 2590 (2010) 17 (2002) 187 22 28 29 34 46 51 572
2019-10-09 20:45 1.20 40 2590 (2010) 17 (2002) 187 22 28 29 34 46 51 572
2019-10-09 19:45 1.21 41 2590 (2010) 17 (2002) 187 22 28 29 34 46 51 572
2019-10-09 18:45 1.21 41 2590 (2010) 17 (2002) 187 22 28 29 34 46 51 572
2019-10-09 17:45 1.21 41 2590 (2010) 17 (2002) 187 22 28 29 34 46 51 572
2019-10-09 16:45 1.21 41 2590 (2010) 17 (2002) 187 22 28 29 34 46 51 572
2019-10-09 15:45 1.21 41 2590 (2010) 17 (2002) 187 22 28 29 34 46 51 572
2019-10-09 14:45 1.21 41 2590 (2010) 17 (2002) 187 22 28 29 34 46 51 572
2019-10-09 13:45 1.21 41 2590 (2010) 17 (2002) 187 22 28 29 34 46 51 572
2019-10-09 12:45 1.21 41 2590 (2010) 17 (2002) 187 22 28 29 34 46 51 572
2019-10-09 11:45 1.21 41 2590 (2010) 17 (2002) 187 22 28 29 34 46 51 572
2019-10-09 10:45 1.21 41 2590 (2010) 17 (2002) 187 22 28 29 34 46 51 572
2019-10-09 09:45 1.22 42 2590 (2010) 17 (2002) 187 22 28 29 34 46 51 572
2019-10-09 08:45 1.22 42 2590 (2010) 17 (2002) 187 22 28 29 34 46 51 572
2019-10-09 07:45 1.22 42 2590 (2010) 17 (2002) 187 22 28 29 34 46 51 572
2019-10-09 06:45 1.22 42 2590 (2010) 17 (2002) 187 22 28 29 34 46 51 572
2019-10-09 05:45 1.22 42 2590 (2010) 17 (2002) 187 22 28 29 34 46 51 572
2019-10-09 04:45 1.23 43 2590 (2010) 17 (2002) 187 22 28 29 34 46 51 572
2019-10-09 03:45 1.23 43 2590 (2010) 17 (2002) 187 22 28 29 34 46 51 572
2019-10-09 02:45 1.23 43 2590 (2010) 17 (2002) 187 22 28 29 34 46 51 572
2019-10-09 01:45 1.23 43 2590 (2010) 17 (2002) 187 22 28 29 34 46 51 572
2019-10-09 00:45 1.23 43 2590 (2010) 17 (2002) 187 22 28 29 34 46 51 572
2019-10-08 23:45 1.24 44 109 (2015) 18 (2002) 39 22 27 27 34 42 46 69
2019-10-08 22:45 1.24 44 109 (2015) 18 (2002) 39 22 27 27 34 42 46 69
2019-10-08 21:45 1.24 44 109 (2015) 18 (2002) 39 22 27 27 34 42 46 69
2019-10-08 20:45 1.25 45 109 (2015) 18 (2002) 39 22 27 27 34 42 46 69
2019-10-08 19:45 1.25 45 109 (2015) 18 (2002) 39 22 27 27 34 42 46 69
2019-10-08 18:45 1.25 45 109 (2015) 18 (2002) 39 22 27 27 34 42 46 69
2019-10-08 17:45 1.25 45 109 (2015) 18 (2002) 39 22 27 27 34 42 46 69
2019-10-08 16:45 1.25 45 109 (2015) 18 (2002) 39 22 27 27 34 42 46 69
2019-10-08 15:45 1.25 45 109 (2015) 18 (2002) 39 22 27 27 34 42 46 69
2019-10-08 14:45 1.25 45 109 (2015) 18 (2002) 39 22 27 27 34 42 46 69
2019-10-08 13:45 1.26 46 109 (2015) 18 (2002) 39 22 27 27 34 42 46 69
2019-10-08 12:45 1.26 46 109 (2015) 18 (2002) 39 22 27 27 34 42 46 69
2019-10-08 11:45 1.23 43 109 (2015) 18 (2002) 39 22 27 27 34 42 46 69
2019-10-08 10:45 1.26 46 109 (2015) 18 (2002) 39 22 27 27 34 42 46 69
2019-10-08 09:45 1.25 45 109 (2015) 18 (2002) 39 22 27 27 34 42 46 69
2019-10-08 08:45 1.25 45 109 (2015) 18 (2002) 39 22 27 27 34 42 46 69
2019-10-08 07:45 1.29 49 109 (2015) 18 (2002) 39 22 27 27 34 42 46 69
2019-10-08 06:45 1.28 48 109 (2015) 18 (2002) 39 22 27 27 34 42 46 69
2019-10-08 05:45 1.27 47 109 (2015) 18 (2002) 39 22 27 27 34 42 46 69
2019-10-08 04:45 1.27 47 109 (2015) 18 (2002) 39 22 27 27 34 42 46 69
2019-10-08 03:45 1.27 47 109 (2015) 18 (2002) 39 22 27 27 34 42 46 69
2019-10-08 02:45 1.29 49 109 (2015) 18 (2002) 39 22 27 27 34 42 46 69
2019-10-08 01:45 1.30 50 109 (2015) 18 (2002) 39 22 27 27 34 42 46 69
2019-10-08 00:45 1.32 52 109 (2015) 18 (2002) 39 22 27 27 34 42 46 69
2019-10-07 23:45 1.29 49 124 (2015) 19 (2002) 41 23 27 28 34 45 47 75
2019-10-07 22:45 1.30 50 124 (2015) 19 (2002) 41 23 27 28 34 45 47 75
2019-10-07 21:45 1.34 54 124 (2015) 19 (2002) 41 23 27 28 34 45 47 75
2019-10-07 20:45 1.32 52 124 (2015) 19 (2002) 41 23 27 28 34 45 47 75
2019-10-07 19:45 1.35 55 124 (2015) 19 (2002) 41 23 27 28 34 45 47 75
2019-10-07 18:45 1.37 57 124 (2015) 19 (2002) 41 23 27 28 34 45 47 75
2019-10-07 17:45 1.36 56 124 (2015) 19 (2002) 41 23 27 28 34 45 47 75
2019-10-07 16:45 1.37 57 124 (2015) 19 (2002) 41 23 27 28 34 45 47 75
2019-10-07 15:45 1.39 59 124 (2015) 19 (2002) 41 23 27 28 34 45 47 75
2019-10-07 14:45 1.39 59 124 (2015) 19 (2002) 41 23 27 28 34 45 47 75
2019-10-07 13:45 1.39 59 124 (2015) 19 (2002) 41 23 27 28 34 45 47 75
2019-10-07 12:45 1.38 58 124 (2015) 19 (2002) 41 23 27 28 34 45 47 75
2019-10-07 11:45 1.46 67 124 (2015) 19 (2002) 41 23 27 28 34 45 47 75
2019-10-07 10:45 1.41 61 124 (2015) 19 (2002) 41 23 27 28 34 45 47 75
2019-10-07 09:45 1.40 60 124 (2015) 19 (2002) 41 23 27 28 34 45 47 75
2019-10-07 08:45 1.43 63 124 (2015) 19 (2002) 41 23 27 28 34 45 47 75
2019-10-07 07:45 1.45 66 124 (2015) 19 (2002) 41 23 27 28 34 45 47 75
2019-10-07 06:45 1.46 67 124 (2015) 19 (2002) 41 23 27 28 34 45 47 75
2019-10-07 05:45 1.48 69 124 (2015) 19 (2002) 41 23 27 28 34 45 47 75
2019-10-07 04:45 1.49 70 124 (2015) 19 (2002) 41 23 27 28 34 45 47 75
2019-10-07 03:45 1.53 75 124 (2015) 19 (2002) 41 23 27 28 34 45 47 75
2019-10-07 02:45 1.48 69 124 (2015) 19 (2002) 41 23 27 28 34 45 47 75
2019-10-07 01:45 1.50 71 124 (2015) 19 (2002) 41 23 27 28 34 45 47 75
2019-10-07 00:45 1.46 67 124 (2015) 19 (2002) 41 23 27 28 34 45 47 75

A total of 171 rows are displayed for years 2002 through 2018.

Trips for Jacks Fork River (Missouri), Mountain View (07065200)

DateStartEndDistanceConditionDischargeHeightFishingDetails
Click for details2008-06-14 Blue Spring Rymer Total trip distance: 6.6 miles6.6 Good 105 2.06 None NoneNone Bowe, Michelle
Edmond, Alex
Edmond, Brian
Edmond, Joseph
Bowe, Michelle; Edmond, Alex; Edmond, Brian; Edmond, Joseph
No notes for this trip<i>No notes for this trip</i> USGS Gauge Data:
Mountain View (07065200)
Discharge: 105
Height: 2.06
<b>USGS Gauge Data:</b></br />Mountain View (07065200)<br />Discharge: 105<br />Height: 2.06
Source: EdmondSource: Edmond
Click for details2007-07-04 Blue Spring Rymer Total trip distance: 6.6 miles6.6 Good 102 1.73 None NoneNone Bowe, Michelle
Edmond, Brian
Bowe, Michelle; Edmond, Brian
No notes for this trip<i>No notes for this trip</i> USGS Gauge Data:
Mountain View (07065200)
Discharge: 102
Height: 1.73
<b>USGS Gauge Data:</b></br />Mountain View (07065200)<br />Discharge: 102<br />Height: 1.73
Source: EdmondSource: Edmond
Click for details2013-06-22 Buck Hollow Rymer Total trip distance: 9.4 miles9.4 Good 78 1.78 None NoneNone Bowe, Michelle
Edmond, Brian
Edmond, Julian
Eth, Joe
Turk, Scott
Van Someren, Cynthia
Van Someren, Tom
Bowe, Michelle; Edmond, Brian; Edmond, Julian; Eth, Joe; Turk, Scott; Van Someren, Cynthia; Van Someren, Tom
Camped on Rymer gravel bar the night before. First part of trip was uneventful. Right after Blue Spring, a thunderstorm with lots of lightning and thunder dumped nearly two inches of rain on us. Although this level was considered good, we all agreed that a 3-6" higher water level would have been ideal. Camped on Rymer gravel bar the night before. First part of trip was uneventful. Right after Blue Spring, a thunderstorm with lots of lightning and thunder dumped nearly two inches of rain on us. Although this level was considered good, we all agreed that a 3-6 USGS Gauge Data:
Mountain View (07065200)
Discharge: 78
Height: 1.78
<b>USGS Gauge Data:</b></br />Mountain View (07065200)<br />Discharge: 78<br />Height: 1.78
Source: EdmondSource: Edmond
Click for details2012-05-26 Blue Spring Rymer Total trip distance: 6.6 miles6.6 Low 27 1.28 Great SMB
RB
LSF
BLG
GSF
SMB, RB, LSF, BLG, GSF
Fillmore, Brent
Fillmore, Brian
Fillmore, Rebecca
Fillmore, Tina
Wann, Denny
Wann, Mom
Fillmore, Brent; Fillmore, Brian; Fillmore, Rebecca; Fillmore, Tina; Wann, Denny; Wann, Mom
No notes for this trip<i>No notes for this trip</i> USGS Gauge Data:
Mountain View (07065200)
Discharge: 27
Height: 1.28
<b>USGS Gauge Data:</b></br />Mountain View (07065200)<br />Discharge: 27<br />Height: 1.28
Source: FillmoreSource: Fillmore

A total of 4 rows are displayed.

Trip Summary for Jacks Fork River (Missouri), Mountain View (07065200)

Miles29.2
Trips4
People15
Dates4
Years4
Months3
Rows4
Sources2

Condition Descriptions

Fishing Conditions

Fish Species

Notes

Classic Trip List

The classic River Trips application is still available for use. It is updated with the new system using a data retrofit. It is no longer maintained. The original River Trips application is no longer updated (as of 1 Dec 2016) but can be checked for errors or for the condition of the data before it was converted to the new system.